Justine — WDF6361 — position and weather

sailwx.info

Track history (hours):
 
Tides and Currents Weather Stations Pressure Air Temp Water Temp Dewpoint Dewpoint Depression Visibility Wind Speed Wind Dir Waves Ship Positions

Justine

Owner: Dagon Marine, LLC, Jersey City, NJ. More information available from US FCC via Universal Licensing System and Coast Guard Vessel Documentation Center.

Last reported at 2017-Nov-15 22:19 UTC. Time now 2017-Nov-19 12:21 UTC.
Position N 34°36' W 076°45'.

Length 30 m; draft 3 m.

Type: Pleasure craft. MMSI: 368564000.

Date/timePositionNaut miles runAvg speedWind from/ knotsBaromVisibWave heightAir tempDewpointWater temp
2017-Nov-15 22:19N 34°36' W 076°45'310.2
2017-Nov-15 22:01N 34°39' W 076°42'4 7.9
2017-Nov-15 21:30N 34°42' W 076°41'4 7.7
2017-Nov-15 21:00N 34°46' W 076°41'4 8.4
2017-Nov-15 20:30N 34°50' W 076°41'  
2017-Nov-12 18:25N 36°44' W 076°16'3 8.3
2017-Nov-12 18:00N 36°47' W 076°18'4 8.1
2017-Nov-12 17:30N 36°51' W 076°18'19611.1
2017-Nov-11 23:53N 39°37' W 074°06'512.1
2017-Nov-11 23:27N 39°42' W 074°03'5011.6
2017-Nov-11 19:09N 40°32' W 074°01'311.5
2017-Nov-11 18:54N 40°34' W 074°02'511.4
2017-Nov-11 18:30N 40°39' W 074°03'4 8.4
2017-Nov-11 18:00N 40°43' W 074°02'2 0.1
2017-Nov-10 18:02N 40°46' W 074°01'0 0.0
2017-Nov-10 17:59N 40°46' W 074°01'0 0.0
2017-Nov-09 16:26N 40°46' W 074°01'3 8.2
2017-Nov-09 16:00N 40°42' W 074°02'2 3.4
2017-Nov-09 15:28N 40°40' W 074°01'0 0.0
2017-Nov-09 14:58N 40°40' W 074°01'1 1.8
2017-Nov-09 14:29N 40°40' W 074°02'1 1.3
2017-Nov-09 14:00N 40°41' W 074°02'4 7.4
2017-Nov-09 13:30N 40°45' W 074°01'1 1.7
2017-Nov-09 12:59N 40°46' W 074°01'0 0.0
2017-Nov-07 20:44N 40°46' W 074°01'0 1.0
2017-Nov-07 20:30N 40°45' W 074°01'3 6.4
2017-Nov-07 20:00N 40°42' W 073°60'0 0.2
2017-Nov-07 19:30N 40°42' W 073°60'1 1.7
2017-Nov-07 19:00N 40°42' W 074°00'3 6.8
2017-Nov-07 18:30N 40°45' W 074°01'0 0.4
2017-Nov-07 18:00N 40°45' W 074°01'0 0.8
2017-Nov-07 17:30N 40°46' W 074°01'0 0.1
2017-Nov-07 17:00N 40°46' W 074°01'0 0.0
2017-Nov-07 16:30N 40°46' W 074°01'  
Track history (hours):
 
Tides and Currents Weather Stations Pressure Air Temp Water Temp Dewpoint Dewpoint Depression Visibility Wind Speed Wind Dir Waves Ship Positions

Justine

Owner: Dagon Marine, LLC, Jersey City, NJ. More information available from US FCC via Universal Licensing System and Coast Guard Vessel Documentation Center.

Last reported at 2017-Nov-15 22:19 UTC. Time now 2017-Nov-19 12:21 UTC.
Position N 34°36' W 076°45'.

Length 30 m; draft 3 m.

Type: Pleasure craft. MMSI: 368564000.

Date/timePositionNaut miles runAvg speedWind from/ knotsBaromVisibWave heightAir tempDewpointWater temp
2017-Nov-15 22:19N 34°36' W 076°45'310.2
2017-Nov-15 22:01N 34°39' W 076°42'4 7.9
2017-Nov-15 21:30N 34°42' W 076°41'4 7.7
2017-Nov-15 21:00N 34°46' W 076°41'4 8.4
2017-Nov-15 20:30N 34°50' W 076°41'  
2017-Nov-12 18:25N 36°44' W 076°16'3 8.3
2017-Nov-12 18:00N 36°47' W 076°18'4 8.1
2017-Nov-12 17:30N 36°51' W 076°18'19611.1
2017-Nov-11 23:53N 39°37' W 074°06'512.1
2017-Nov-11 23:27N 39°42' W 074°03'5011.6
2017-Nov-11 19:09N 40°32' W 074°01'311.5
2017-Nov-11 18:54N 40°34' W 074°02'511.4
2017-Nov-11 18:30N 40°39' W 074°03'4 8.4
2017-Nov-11 18:00N 40°43' W 074°02'2 0.1
2017-Nov-10 18:02N 40°46' W 074°01'0 0.0
2017-Nov-10 17:59N 40°46' W 074°01'0 0.0
2017-Nov-09 16:26N 40°46' W 074°01'3 8.2
2017-Nov-09 16:00N 40°42' W 074°02'2 3.4
2017-Nov-09 15:28N 40°40' W 074°01'0 0.0
2017-Nov-09 14:58N 40°40' W 074°01'1 1.8
2017-Nov-09 14:29N 40°40' W 074°02'1 1.3
2017-Nov-09 14:00N 40°41' W 074°02'4 7.4
2017-Nov-09 13:30N 40°45' W 074°01'1 1.7
2017-Nov-09 12:59N 40°46' W 074°01'0 0.0
2017-Nov-07 20:44N 40°46' W 074°01'0 1.0
2017-Nov-07 20:30N 40°45' W 074°01'3 6.4
2017-Nov-07 20:00N 40°42' W 073°60'0 0.2
2017-Nov-07 19:30N 40°42' W 073°60'1 1.7
2017-Nov-07 19:00N 40°42' W 074°00'3 6.8
2017-Nov-07 18:30N 40°45' W 074°01'0 0.4
2017-Nov-07 18:00N 40°45' W 074°01'0 0.8
2017-Nov-07 17:30N 40°46' W 074°01'0 0.1
2017-Nov-07 17:00N 40°46' W 074°01'0 0.0
2017-Nov-07 16:30N 40°46' W 074°01'  

Dump ship's entire track history